Time;durP1;ratioP1;P1;durP2;ratioP2;P2;SDS_P1;SDS_P2;PMS_P1;PMS_P2;Temp;Humidity;BMP_temperature;BMP_pressure;BME280_temperature;BME280_humidity;BME280_pressure;Samples;Min_cycle;Max_cycle;Signal;HPM_P1;HPM_P2
2021/12/18 00:00:57;;;;;;;7.93;3.77;;;;;;;4.80;91.15;98231.38;5036910;28;20233;-70
2021/12/18 00:03:24;;;;;;;5.07;3.23;;;;;;;4.84;91.53;98223.25;5037444;28;20231;-70
2021/12/18 00:05:51;;;;;;;5.10;2.77;;;;;;;4.77;90.81;98228.13;5036722;28;20204;-70
2021/12/18 00:08:17;;;;;;;8.70;4.40;;;;;;;4.68;91.25;98220.84;5036569;28;20209;-70
2021/12/18 00:10:45;;;;;;;7.70;4.70;;;;;;;5.08;89.71;98206.06;5034043;28;20232;-70
2021/12/18 00:13:13;;;;;;;12.03;4.07;;;;;;;5.06;90.67;98201.88;5036654;28;20201;-70
2021/12/18 00:15:40;;;;;;;8.70;5.13;;;;;;;4.83;90.46;98211.13;5036712;28;20201;-70
2021/12/18 00:18:07;;;;;;;19.30;5.23;;;;;;;4.91;90.43;98203.69;5036511;28;20579;-70
2021/12/18 00:20:36;;;;;;;10.63;3.17;;;;;;;4.98;89.63;98204.97;5036642;28;20712;-70
2021/12/18 00:23:02;;;;;;;6.03;3.87;;;;;;;4.70;89.30;98206.75;5036026;28;20228;-70
2021/12/18 00:25:29;;;;;;;7.50;3.93;;;;;;;4.68;90.57;98211.22;5036972;28;20205;-70
2021/12/18 00:27:56;;;;;;;14.23;5.10;;;;;;;4.71;90.41;98199.75;5037012;28;20212;-70
2021/12/18 00:30:25;;;;;;;9.27;3.83;;;;;;;5.09;90.49;98196.44;5036772;28;20225;-70
2021/12/18 00:32:53;;;;;;;8.80;5.10;;;;;;;4.47;92.16;98204.72;5034269;28;20214;-70
2021/12/18 00:35:19;;;;;;;8.00;3.70;;;;;;;4.40;92.42;98200.81;5036180;28;20212;-70
2021/12/18 00:37:46;;;;;;;8.37;4.00;;;;;;;4.24;92.46;98193.97;5036562;28;20208;-70
2021/12/18 00:40:20;;;;;;;7.20;3.10;;;;;;;4.91;90.56;98193.22;5036765;28;21026;-70
2021/12/18 00:42:50;;;;;;;12.83;4.90;;;;;;;4.94;90.24;98192.19;5035834;28;20232;-70
2021/12/18 00:45:18;;;;;;;7.27;3.20;;;;;;;5.11;89.81;98194.59;5037064;28;20748;-70
2021/12/18 00:47:47;;;;;;;11.53;4.70;;;;;;;5.19;90.01;98193.13;5036356;28;20217;-70
2021/12/18 00:50:17;;;;;;;11.63;5.27;;;;;;;5.12;90.81;98191.03;5036559;28;20224;-70
2021/12/18 00:52:44;;;;;;;8.40;3.47;;;;;;;4.37;92.13;98197.53;5036103;28;20208;-70
2021/12/18 00:55:11;;;;;;;8.30;4.37;;;;;;;4.79;91.15;98198.38;5036855;28;20196;-70
2021/12/18 00:57:37;;;;;;;3.63;3.20;;;;;;;4.42;91.77;98195.50;5040057;28;20224;-70
2021/12/18 01:00:07;;;;;;;5.47;3.27;;;;;;;4.79;91.62;98194.94;5040504;28;20221;-70
2021/12/18 01:02:34;;;;;;;14.33;3.40;;;;;;;4.90;90.34;98181.09;5039685;28;20232;-70
2021/12/18 01:05:02;;;;;;;7.53;4.53;;;;;;;5.15;90.05;98196.88;5040436;28;20300;-71
2021/12/18 01:07:28;;;;;;;6.50;3.60;;;;;;;4.85;89.90;98198.00;5040743;28;20205;-70
2021/12/18 01:10:03;;;;;;;8.57;4.10;;;;;;;4.59;91.38;98200.50;5038109;28;20233;-70
2021/12/18 01:12:37;;;;;;;7.87;3.63;;;;;;;4.78;91.46;98211.53;5039596;28;20296;-70
2021/12/18 01:15:15;;;;;;;12.63;5.60;;;;;;;4.33;93.43;98206.47;5040489;28;20209;-70
2021/12/18 01:23:12;;;;;;;9.27;4.30;;;;;;;4.70;91.66;98219.81;5039509;28;20231;-70
2021/12/18 01:25:39;;;;;;;8.07;4.77;;;;;;;4.55;91.93;98214.69;5040173;28;20211;-70
2021/12/18 01:28:06;;;;;;;12.87;5.07;;;;;;;4.45;92.45;98214.38;5039910;28;20224;-70
2021/12/18 01:30:33;;;;;;;5.40;2.70;;;;;;;4.54;92.03;98208.59;5040010;28;20231;-70
2021/12/18 01:32:59;;;;;;;8.33;4.53;;;;;;;4.61;91.82;98214.31;5039518;28;20212;-70
2021/12/18 01:35:26;;;;;;;13.00;4.50;;;;;;;4.50;92.68;98207.13;5039806;28;20724;-70
2021/12/18 01:37:54;;;;;;;8.57;4.30;;;;;;;4.46;93.81;98220.47;5039928;28;20696;-70
2021/12/18 01:40:22;;;;;;;9.10;4.70;;;;;;;4.45;93.84;98208.34;5039936;28;20221;-70
2021/12/18 01:43:56;;;;;;;9.37;4.77;;;;;;;4.61;93.18;98220.38;5038902;28;20326;-70
2021/12/18 01:46:30;;;;;;;7.13;3.77;;;;;;;4.36;94.31;98203.69;5039297;28;20235;-70
2021/12/18 01:52:01;;;;;;;10.20;6.43;;;;;;;4.48;93.09;98214.22;5039714;28;20236;-70
2021/12/18 01:54:29;;;;;;;9.23;3.30;;;;;;;4.70;92.67;98211.97;5038866;28;20556;-70
2021/12/18 01:56:56;;;;;;;7.97;2.87;;;;;;;4.01;94.97;98214.50;5040309;28;20247;-70
2021/12/18 01:59:38;;;;;;;5.77;3.07;;;;;;;3.99;97.57;98217.22;5039425;28;20554;-70
2021/12/18 02:02:05;;;;;;;4.63;3.47;;;;;;;4.04;95.80;98217.78;5039709;28;20683;-70
2021/12/18 02:04:32;;;;;;;13.40;6.27;;;;;;;4.03;95.32;98216.09;5038752;28;20228;-70
2021/12/18 02:06:59;;;;;;;13.90;5.57;;;;;;;4.08;95.06;98221.88;5039052;28;20209;-70
2021/12/18 02:09:33;;;;;;;10.10;4.80;;;;;;;4.21;94.31;98215.00;5035593;28;20200;-70
2021/12/18 02:12:01;;;;;;;4.80;2.97;;;;;;;4.45;93.77;98224.00;5039634;28;20205;-70
2021/12/18 02:19:32;;;;;;;10.10;5.73;;;;;;;3.92;95.16;98223.72;5038666;28;20219;-70
2021/12/18 02:20:21;;;;;;;15.27;4.87;;;;;;;4.03;97.05;98225.69;5039412;28;20235;-70
2021/12/18 02:22:48;;;;;;;5.50;3.83;;;;;;;3.85;96.66;98225.00;5038411;28;20251;-70
2021/12/18 02:25:15;;;;;;;6.43;4.10;;;;;;;3.83;96.37;98216.44;5039095;28;20205;-70
2021/12/18 02:27:41;;;;;;;6.90;3.70;;;;;;;3.93;96.04;98224.56;5038975;28;20216;-70
2021/12/18 02:30:11;;;;;;;9.80;4.87;;;;;;;4.08;95.62;98227.09;5039409;28;20232;-70
2021/12/18 02:32:37;;;;;;;12.60;6.23;;;;;;;3.87;95.91;98223.16;5037945;28;20292;-70
2021/12/18 02:35:05;;;;;;;12.70;5.60;;;;;;;4.04;95.84;98228.22;5039095;28;20212;-70
2021/12/18 02:37:39;;;;;;;7.83;4.17;;;;;;;4.20;95.72;98217.72;5038856;28;20218;-70
2021/12/18 02:42:52;;;;;;;19.77;4.53;;;;;;;4.15;95.26;98224.97;5038456;28;20274;-70
2021/12/18 02:45:21;;;;;;;13.80;6.23;;;;;;;4.17;94.78;98220.53;5038597;28;20898;-70
2021/12/18 02:47:48;;;;;;;9.00;3.77;;;;;;;3.92;95.91;98218.50;5038402;28;20721;-70
2021/12/18 02:50:15;;;;;;;11.83;5.20;;;;;;;3.81;95.97;98220.88;5037843;28;20318;-70
2021/12/18 02:52:43;;;;;;;8.83;3.53;;;;;;;4.00;96.52;98216.28;5037744;28;20207;-70
2021/12/18 02:55:10;;;;;;;14.27;5.80;;;;;;;4.02;96.01;98217.06;5038792;28;20198;-70
2021/12/18 02:57:36;;;;;;;11.23;4.83;;;;;;;3.99;95.86;98224.22;5037675;28;20754;-70
2021/12/18 03:00:04;;;;;;;5.47;4.27;;;;;;;4.43;94.86;98208.44;5038594;28;20224;-70
2021/12/18 03:02:38;;;;;;;8.40;5.33;;;;;;;4.33;94.19;98201.25;5037580;28;20211;-70
2021/12/18 03:05:08;;;;;;;7.70;4.97;;;;;;;4.47;93.87;98201.28;5037944;28;20290;-70
2021/12/18 03:07:35;;;;;;;9.20;4.90;;;;;;;4.22;93.88;98201.03;5038416;28;20211;-70
2021/12/18 03:23:49;;;;;;;12.17;4.60;;;;;;;4.28;94.22;98208.53;5036914;28;20232;-70
2021/12/18 03:26:17;;;;;;;10.53;4.57;;;;;;;4.44;94.38;98197.06;5037360;28;20680;-70
2021/12/18 03:28:43;;;;;;;8.43;4.17;;;;;;;4.20;94.09;98202.06;5037148;28;20209;-70
2021/12/18 03:31:10;;;;;;;9.93;4.20;;;;;;;4.32;93.91;98199.56;5038047;28;20234;-70
2021/12/18 03:33:37;;;;;;;7.13;4.50;;;;;;;4.31;93.53;98200.50;5034402;28;20211;-70
2021/12/18 03:36:07;;;;;;;8.03;4.53;;;;;;;4.25;94.09;98193.88;5037122;28;20215;-70
2021/12/18 03:38:33;;;;;;;6.70;2.77;;;;;;;4.01;94.06;98198.84;5037474;28;20212;-70
2021/12/18 03:41:00;;;;;;;7.83;3.67;;;;;;;4.16;94.07;98195.34;5038823;28;20249;-70
2021/12/18 03:43:28;;;;;;;8.13;4.97;;;;;;;4.28;94.76;98198.09;5037050;28;20224;-70
2021/12/18 03:45:54;;;;;;;16.10;4.00;;;;;;;3.93;95.09;98194.09;5037510;28;20211;-70
2021/12/18 03:48:21;;;;;;;11.47;5.40;;;;;;;4.14;94.92;98194.59;5037254;28;20212;-70
2021/12/18 03:50:49;;;;;;;9.37;4.10;;;;;;;4.22;94.34;98188.81;5038150;28;20232;-70
2021/12/18 03:53:15;;;;;;;7.67;5.03;;;;;;;4.43;93.48;98184.94;5036349;28;20204;-70
2021/12/18 03:55:42;;;;;;;9.80;4.83;;;;;;;4.57;92.66;98181.47;5037637;28;20213;-70
2021/12/18 03:58:08;;;;;;;7.47;3.83;;;;;;;4.53;92.15;98180.00;5037717;28;20219;-70
2021/12/18 04:00:36;;;;;;;5.50;3.97;;;;;;;4.73;92.76;98177.84;5037086;28;20724;-70
2021/12/18 04:03:04;;;;;;;14.83;4.93;;;;;;;4.48;92.09;98176.81;5035434;28;20681;-70
2021/12/18 04:05:31;;;;;;;11.87;4.23;;;;;;;4.26;92.62;98172.09;5036303;28;20223;-70
2021/12/18 04:08:08;;;;;;;8.17;4.83;;;;;;;4.11;93.85;98174.78;5036391;28;20208;-70
2021/12/18 04:10:37;;;;;;;5.07;2.43;;;;;;;4.47;93.74;98169.94;5033905;28;20237;-70
2021/12/18 04:13:04;;;;;;;11.77;5.27;;;;;;;4.10;94.41;98167.00;5035577;28;20290;-70
2021/12/18 04:15:30;;;;;;;7.73;4.03;;;;;;;4.05;94.50;98172.50;5035960;28;20212;-70
2021/12/18 04:17:58;;;;;;;14.27;5.83;;;;;;;4.11;95.11;98169.56;5036513;28;20201;-70
2021/12/18 04:20:25;;;;;;;16.90;5.10;;;;;;;4.10;94.59;98174.84;5036680;28;20234;-70
2021/12/18 04:22:52;;;;;;;3.87;3.30;;;;;;;4.03;94.55;98174.38;5035242;28;20759;-70
2021/12/18 04:25:18;;;;;;;13.93;4.17;;;;;;;4.17;94.09;98170.94;5036761;28;20232;-70
2021/12/18 04:27:45;;;;;;;11.67;4.40;;;;;;;4.20;93.61;98174.22;5035958;28;20584;-70
2021/12/18 04:30:12;;;;;;;11.20;4.50;;;;;;;4.13;94.35;98170.28;5035726;28;20228;-70
2021/12/18 04:32:39;;;;;;;7.47;4.67;;;;;;;4.01;94.38;98178.00;5036013;28;20232;-70
2021/12/18 04:35:08;;;;;;;7.43;4.47;;;;;;;4.24;95.02;98179.16;5036029;28;20480;-70
2021/12/18 04:37:35;;;;;;;13.17;4.67;;;;;;;4.07;94.67;98188.91;5036351;28;20470;-70
2021/12/18 04:40:02;;;;;;;8.43;4.53;;;;;;;4.22;94.66;98185.38;5036656;28;20239;-70
2021/12/18 04:42:28;;;;;;;10.83;3.73;;;;;;;3.80;95.15;98194.91;5035719;28;20666;-70
2021/12/18 04:44:55;;;;;;;13.57;5.77;;;;;;;3.96;95.71;98183.50;5036001;28;20526;-70
2021/12/18 04:47:21;;;;;;;13.93;3.77;;;;;;;4.03;95.65;98187.41;5036066;28;20201;-70
2021/12/18 04:49:48;;;;;;;11.83;3.47;;;;;;;4.14;94.58;98185.00;5035986;28;20230;-70
2021/12/18 04:52:16;;;;;;;8.33;4.57;;;;;;;4.43;94.10;98189.31;5036113;28;20422;-70
2021/12/18 04:54:44;;;;;;;7.13;3.97;;;;;;;4.13;94.67;98196.38;5036007;28;20208;-70
2021/12/18 04:57:11;;;;;;;9.70;4.13;;;;;;;3.96;95.40;98178.28;5036302;28;20203;-70
2021/12/18 04:59:43;;;;;;;10.67;4.00;;;;;;;3.86;96.42;98189.34;5035844;28;20211;-71
2021/12/18 05:02:11;;;;;;;7.53;2.43;;;;;;;3.91;95.92;98180.31;5036416;28;20695;-70
2021/12/18 05:04:37;;;;;;;9.03;3.83;;;;;;;3.63;97.66;98177.63;5035554;28;20937;-70
2021/12/18 05:07:04;;;;;;;4.93;3.53;;;;;;;3.72;96.95;98179.69;5036114;28;20470;-70
2021/12/18 05:09:32;;;;;;;4.67;3.33;;;;;;;4.16;96.16;98184.91;5033240;28;20214;-70
2021/12/18 05:11:58;;;;;;;11.63;4.97;;;;;;;4.06;95.38;98189.84;5036096;28;20207;-70
2021/12/18 05:14:25;;;;;;;9.20;3.17;;;;;;;3.57;96.94;98186.72;5035064;28;20226;-70
2021/12/18 05:16:51;;;;;;;9.90;4.13;;;;;;;3.66;97.95;98184.44;5036142;28;20211;-70
2021/12/18 05:19:17;;;;;;;8.67;5.70;;;;;;;3.93;96.71;98188.88;5035733;28;20595;-70
2021/12/18 05:21:44;;;;;;;6.03;3.30;;;;;;;4.05;95.83;98197.75;5035899;28;20239;-70
2021/12/18 05:24:10;;;;;;;16.50;4.97;;;;;;;4.18;95.19;98196.94;5034496;28;20712;-70
2021/12/18 05:26:38;;;;;;;9.63;4.70;;;;;;;4.33;95.49;98196.03;5036068;28;20207;-70
2021/12/18 05:29:05;;;;;;;8.40;4.53;;;;;;;4.23;94.96;98187.06;5035693;28;21224;-70
2021/12/18 05:31:31;;;;;;;6.63;3.27;;;;;;;4.23;94.67;98192.28;5035239;28;20716;-70
2021/12/18 05:34:00;;;;;;;13.97;2.87;;;;;;;3.52;96.79;98189.59;5034945;28;20203;-70
2021/12/18 05:36:36;;;;;;;10.20;3.77;;;;;;;3.88;96.29;98190.06;5035944;28;20375;-70
2021/12/18 05:39:05;;;;;;;8.07;4.83;;;;;;;3.90;96.38;98198.66;5035251;28;20709;-70
2021/12/18 05:41:32;;;;;;;9.70;4.37;;;;;;;3.64;95.60;98189.72;5035736;28;20233;-70
2021/12/18 05:44:00;;;;;;;5.80;3.23;;;;;;;3.95;95.74;98197.47;5038240;28;20242;-70
2021/12/18 05:46:27;;;;;;;6.40;3.07;;;;;;;4.04;94.29;98196.91;5039095;28;20212;-70
2021/12/18 05:48:54;;;;;;;25.50;3.20;;;;;;;3.72;95.64;98195.34;5039504;28;20220;-70
2021/12/18 05:51:20;;;;;;;6.60;2.77;;;;;;;3.60;95.74;98202.19;5038639;28;20390;-70
2021/12/18 05:53:47;;;;;;;5.27;2.57;;;;;;;3.98;95.53;98196.44;5038871;28;20237;-70
2021/12/18 05:56:14;;;;;;;9.23;4.00;;;;;;;3.81;95.44;98192.19;5039066;28;20220;-70
2021/12/18 05:58:43;;;;;;;9.30;3.97;;;;;;;3.85;95.76;98191.09;5039012;28;20221;-70
2021/12/18 06:01:12;;;;;;;13.03;3.10;;;;;;;4.04;96.35;98181.25;5038979;28;20236;-70
2021/12/18 06:03:39;;;;;;;25.03;5.03;;;;;;;3.74;96.48;98182.22;5038345;28;20206;-70
2021/12/18 06:06:05;;;;;;;12.57;5.13;;;;;;;3.62;96.84;98176.88;5038320;28;20213;-70
2021/12/18 06:08:34;;;;;;;24.43;7.00;;;;;;;3.66;96.67;98185.25;5038790;28;20210;-70
2021/12/18 06:11:06;;;;;;;7.80;3.07;;;;;;;3.60;96.03;98178.72;5037052;28;20940;-70
2021/12/18 06:13:32;;;;;;;11.27;5.37;;;;;;;3.51;97.29;98190.50;5038676;28;20575;-70
2021/12/18 06:15:59;;;;;;;2.87;1.97;;;;;;;3.36;97.63;98188.78;5038172;28;20209;-70
2021/12/18 06:18:27;;;;;;;8.97;3.93;;;;;;;3.84;97.20;98189.41;5038527;28;20207;-70
2021/12/18 06:20:53;;;;;;;13.23;3.47;;;;;;;3.53;96.73;98190.44;5039208;28;20251;-70
2021/12/18 06:23:20;;;;;;;12.33;3.63;;;;;;;3.60;96.15;98189.16;5037770;28;20581;-70
2021/12/18 06:25:46;;;;;;;16.40;4.80;;;;;;;3.72;96.36;98194.50;5038197;28;20232;-70
2021/12/18 06:28:13;;;;;;;7.90;4.30;;;;;;;3.87;95.88;98194.47;5038656;28;20208;-70
2021/12/18 06:30:39;;;;;;;8.27;3.80;;;;;;;3.90;95.32;98196.88;5037976;28;20243;-70
2021/12/18 06:33:06;;;;;;;10.37;3.70;;;;;;;3.60;95.97;98197.81;5037595;28;20219;-70
2021/12/18 06:35:34;;;;;;;13.73;2.90;;;;;;;4.08;96.37;98194.97;5038717;28;20221;-70
2021/12/18 06:38:00;;;;;;;13.93;5.20;;;;;;;4.03;95.34;98195.22;5038129;28;20216;-70
2021/12/18 06:40:27;;;;;;;5.17;2.33;;;;;;;3.64;96.21;98192.34;5038612;28;20233;-70
2021/12/18 06:42:53;;;;;;;10.23;4.57;;;;;;;3.50;96.99;98193.22;5037771;28;20228;-70
2021/12/18 06:45:20;;;;;;;5.30;2.57;;;;;;;3.75;96.27;98197.75;5038073;28;20236;-70
2021/12/18 06:47:46;;;;;;;10.27;4.03;;;;;;;3.91;96.09;98193.34;5038144;28;20221;-70
2021/12/18 06:50:13;;;;;;;5.90;3.97;;;;;;;3.81;96.45;98197.41;5038714;28;20602;-70
2021/12/18 06:52:41;;;;;;;13.77;3.40;;;;;;;4.15;95.87;98197.13;5038007;28;20213;-70
2021/12/18 06:55:08;;;;;;;5.67;3.30;;;;;;;4.01;95.65;98202.31;5038176;28;20207;-70
2021/12/18 06:57:35;;;;;;;6.30;2.97;;;;;;;3.62;95.50;98199.41;5037593;28;20577;-70
2021/12/18 07:00:01;;;;;;;4.27;1.53;;;;;;;3.53;96.35;98193.06;5038903;28;20229;-70
2021/12/18 07:02:28;;;;;;;13.80;5.20;;;;;;;3.71;95.31;98204.09;5037537;28;21361;-70
2021/12/18 07:04:54;;;;;;;7.03;3.23;;;;;;;3.48;95.36;98198.50;5038803;28;20589;-70
2021/12/18 07:07:21;;;;;;;4.20;2.97;;;;;;;3.54;95.58;98202.53;5038068;28;20218;-70
2021/12/18 07:09:48;;;;;;;9.03;3.60;;;;;;;3.86;95.70;98199.78;5035499;28;20243;-70
2021/12/18 07:12:15;;;;;;;12.60;3.70;;;;;;;3.85;94.83;98195.47;5037401;28;20216;-70
2021/12/18 07:14:41;;;;;;;8.13;2.93;;;;;;;3.77;94.52;98202.91;5037789;28;20198;-69
2021/12/18 07:17:08;;;;;;;3.37;1.77;;;;;;;3.83;94.73;98200.78;5038030;28;20672;-69
2021/12/18 07:19:35;;;;;;;6.80;3.63;;;;;;;3.36;94.76;98195.75;5038382;28;20206;-69
2021/12/18 07:22:01;;;;;;;7.10;2.80;;;;;;;3.83;93.45;98190.34;5038036;28;20211;-70
2021/12/18 07:24:28;;;;;;;5.23;3.27;;;;;;;3.74;93.08;98188.28;5037565;28;20256;-70
2021/12/18 07:26:56;;;;;;;3.23;2.13;;;;;;;3.88;93.40;98196.16;5037951;28;20204;-70
2021/12/18 07:29:23;;;;;;;5.40;2.47;;;;;;;3.80;93.34;98193.13;5038026;28;20216;-70
2021/12/18 07:31:49;;;;;;;15.07;4.37;;;;;;;3.56;93.94;98196.31;5038572;28;20753;-70
2021/12/18 07:34:16;;;;;;;13.23;3.27;;;;;;;3.81;93.28;98194.81;5035658;28;20205;-70
2021/12/18 07:36:43;;;;;;;8.67;4.33;;;;;;;3.77;93.66;98202.91;5036411;28;20212;-70
2021/12/18 07:39:09;;;;;;;3.83;2.27;;;;;;;3.39;94.17;98201.63;5037319;28;21456;-70
2021/12/18 07:41:36;;;;;;;2.20;1.77;;;;;;;3.61;94.41;98196.88;5037007;28;20716;-70
2021/12/18 07:44:06;;;;;;;7.03;2.33;;;;;;;3.89;94.48;98207.41;5034389;28;20665;-70
2021/12/18 07:46:33;;;;;;;12.50;2.70;;;;;;;3.38;95.16;98204.34;5036455;28;20205;-70
2021/12/18 07:48:59;;;;;;;11.30;4.03;;;;;;;3.61;94.98;98202.09;5037484;28;20205;-70
2021/12/18 07:51:26;;;;;;;7.07;3.80;;;;;;;3.60;94.56;98205.63;5037001;28;20228;-70
2021/12/18 07:53:53;;;;;;;4.53;2.53;;;;;;;3.41;95.63;98209.38;5035834;28;20214;-70
2021/12/18 07:56:19;;;;;;;6.07;2.97;;;;;;;3.35;96.04;98215.75;5037387;28;20208;-70
2021/12/18 07:58:46;;;;;;;4.47;2.10;;;;;;;3.57;95.26;98218.00;5036840;28;20200;-70
2021/12/18 08:01:14;;;;;;;6.47;3.93;;;;;;;3.99;94.83;98212.00;5036961;28;20239;-70
2021/12/18 08:03:41;;;;;;;10.90;3.57;;;;;;;3.67;94.41;98213.00;5036559;28;20230;-70
2021/12/18 08:06:07;;;;;;;8.90;2.17;;;;;;;3.93;94.02;98209.72;5036500;28;20228;-70
2021/12/18 08:08:34;;;;;;;9.33;3.33;;;;;;;4.03;93.20;98217.88;5036778;28;20209;-70
2021/12/18 08:11:01;;;;;;;4.53;2.93;;;;;;;3.96;93.28;98211.31;5034685;28;20256;-70
2021/12/18 08:13:27;;;;;;;12.10;4.67;;;;;;;3.94;93.61;98208.81;5035632;28;20871;-71
2021/12/18 08:15:54;;;;;;;7.40;3.60;;;;;;;3.95;93.02;98207.88;5036576;28;20205;-70
2021/12/18 08:18:21;;;;;;;2.63;2.17;;;;;;;3.95;93.89;98209.66;5037322;28;20209;-70
2021/12/18 08:20:48;;;;;;;6.77;3.33;;;;;;;3.71;93.14;98209.28;5036815;28;20227;-70
2021/12/18 08:23:14;;;;;;;10.07;4.73;;;;;;;3.79;92.88;98204.50;5035913;28;20747;-70
2021/12/18 08:25:41;;;;;;;7.20;2.40;;;;;;;3.89;93.30;98208.22;5036214;28;20240;-70
2021/12/18 08:28:08;;;;;;;2.73;1.80;;;;;;;3.79;93.63;98196.69;5036899;28;20584;-70
2021/12/18 08:30:38;;;;;;;3.70;2.77;;;;;;;3.69;94.23;98195.53;5037107;28;20243;-70
2021/12/18 08:33:05;;;;;;;3.17;2.37;;;;;;;3.63;94.12;98197.66;5036200;28;20682;-70
2021/12/18 08:35:33;;;;;;;7.10;2.87;;;;;;;3.80;94.43;98208.78;5036035;28;20200;-70
2021/12/18 08:38:01;;;;;;;5.00;3.03;;;;;;;3.90;93.87;98204.72;5036237;28;20207;-70
2021/12/18 08:40:28;;;;;;;6.70;3.17;;;;;;;3.92;94.34;98202.00;5036058;28;20221;-70
2021/12/18 08:42:55;;;;;;;12.03;3.30;;;;;;;3.89;94.33;98197.81;5036613;28;20207;-70
2021/12/18 08:45:22;;;;;;;7.13;3.17;;;;;;;4.13;93.53;98196.38;5036132;28;20220;-70
2021/12/18 08:47:49;;;;;;;8.33;4.37;;;;;;;4.11;93.43;98203.47;5035542;28;20869;-70
2021/12/18 08:50:18;;;;;;;3.13;2.77;;;;;;;3.96;93.31;98204.38;5036361;28;20728;-70
2021/12/18 08:52:47;;;;;;;8.90;3.10;;;;;;;4.03;93.61;98200.44;5036000;28;21301;-70
2021/12/18 08:55:14;;;;;;;5.20;1.77;;;;;;;3.87;94.02;98189.25;5036415;28;20209;-70
2021/12/18 08:57:41;;;;;;;8.07;2.87;;;;;;;3.90;93.87;98194.28;5035952;28;20215;-70
2021/12/18 09:00:11;;;;;;;12.13;4.50;;;;;;;4.24;93.71;98201.81;5036562;28;20232;-70
2021/12/18 09:02:40;;;;;;;4.80;3.43;;;;;;;3.88;93.90;98203.13;5035844;28;20201;-70
2021/12/18 09:05:08;;;;;;;3.77;2.43;;;;;;;3.99;94.17;98204.16;5035705;28;20224;-70
2021/12/18 09:07:35;;;;;;;7.10;3.17;;;;;;;3.77;94.14;98203.75;5035965;28;20208;-70
2021/12/18 09:10:04;;;;;;;9.43;3.83;;;;;;;3.90;94.22;98204.72;5032713;28;20227;-70
2021/12/18 09:12:30;;;;;;;11.67;2.77;;;;;;;3.65;94.58;98206.19;5035373;28;20204;-70
2021/12/18 09:14:57;;;;;;;5.60;3.30;;;;;;;3.93;93.93;98206.28;5036122;28;20197;-70
2021/12/18 09:17:23;;;;;;;9.27;3.77;;;;;;;4.14;93.13;98211.09;5038083;28;20212;-70
2021/12/18 09:19:50;;;;;;;10.90;2.77;;;;;;;4.18;93.43;98215.22;5039161;28;20723;-70
2021/12/18 09:22:17;;;;;;;4.60;2.60;;;;;;;4.33;92.92;98216.91;5039296;28;20211;-70
2021/12/18 09:24:44;;;;;;;10.07;4.17;;;;;;;3.93;92.51;98214.94;5040436;28;21032;-70
2021/12/18 09:27:11;;;;;;;16.13;3.53;;;;;;;4.18;93.01;98204.78;5038602;28;20227;-70
2021/12/18 09:29:38;;;;;;;8.90;3.40;;;;;;;3.96;93.03;98209.56;5039991;28;20212;-70
2021/12/18 09:32:05;;;;;;;10.70;2.87;;;;;;;3.95;93.29;98213.09;5039649;28;20209;-70
2021/12/18 09:34:33;;;;;;;12.90;4.37;;;;;;;4.01;92.72;98217.97;5039847;28;20474;-70
2021/12/18 09:37:00;;;;;;;6.07;1.73;;;;;;;4.00;93.17;98215.47;5039657;28;20243;-70
2021/12/18 09:39:26;;;;;;;9.50;2.97;;;;;;;4.25;93.18;98211.28;5040314;28;20601;-70
2021/12/18 09:41:54;;;;;;;7.10;3.00;;;;;;;4.35;93.07;98208.06;5038937;28;20209;-70
2021/12/18 09:44:26;;;;;;;8.00;4.47;;;;;;;4.40;93.29;98207.78;5038113;28;20205;-70
2021/12/18 09:46:54;;;;;;;7.70;3.30;;;;;;;4.10;93.09;98214.81;5039715;28;20224;-70
2021/12/18 09:49:20;;;;;;;6.07;3.47;;;;;;;4.17;93.86;98210.91;5038849;28;20212;-70
2021/12/18 09:51:47;;;;;;;9.03;3.97;;;;;;;4.03;94.83;98207.44;5038479;28;20260;-70
2021/12/18 09:54:14;;;;;;;5.17;2.93;;;;;;;4.10;93.42;98207.00;5037352;28;20201;-70
2021/12/18 09:56:40;;;;;;;4.57;2.40;;;;;;;4.40;93.23;98207.78;5038651;28;20205;-70
2021/12/18 09:59:07;;;;;;;4.03;2.20;;;;;;;4.20;92.94;98197.72;5039070;28;20216;-70
2021/12/18 10:01:36;;;;;;;8.50;4.17;;;;;;;4.45;93.73;98203.13;5039475;28;20220;-70
2021/12/18 10:04:04;;;;;;;3.00;2.10;;;;;;;4.57;92.49;98186.69;5038265;28;20200;-70
2021/12/18 10:06:43;;;;;;;13.20;2.97;;;;;;;4.84;90.67;98191.09;5038591;28;20244;-70
2021/12/18 10:09:12;;;;;;;7.70;2.63;;;;;;;4.60;92.24;98187.38;5038418;28;20391;-70
2021/12/18 10:11:45;;;;;;;8.30;3.03;;;;;;;4.66;91.11;98189.59;5035927;28;20500;-70
2021/12/18 10:14:13;;;;;;;7.47;3.33;;;;;;;4.62;91.52;98187.25;5038293;28;20314;-70
2021/12/18 10:16:45;;;;;;;8.00;3.03;;;;;;;4.82;90.90;98179.88;5039208;28;20229;-71
2021/12/18 10:19:24;;;;;;;8.30;2.03;;;;;;;4.51;91.66;98182.69;5040225;28;20197;-70
2021/12/18 10:21:55;;;;;;;8.57;3.90;;;;;;;4.46;93.34;98176.09;5039018;28;20232;-71
2021/12/18 10:24:22;;;;;;;5.63;2.70;;;;;;;4.22;92.31;98174.97;5038027;28;20235;-70
2021/12/18 10:26:49;;;;;;;17.27;6.40;;;;;;;4.33;91.24;98169.94;5039123;28;20232;-71
2021/12/18 10:29:34;;;;;;;10.17;4.67;;;;;;;4.83;90.51;98161.50;5038552;28;20201;-71
2021/12/18 10:32:08;;;;;;;10.63;4.33;;;;;;;4.80;90.90;98152.19;5038106;28;20215;-70
2021/12/18 10:34:35;;;;;;;6.93;3.13;;;;;;;4.58;91.09;98154.44;5038505;28;20203;-71
2021/12/18 10:37:14;;;;;;;18.90;4.37;;;;;;;4.68;91.55;98155.56;5039198;28;20232;-71
2021/12/18 10:39:45;;;;;;;4.83;3.17;;;;;;;4.40;92.64;98160.78;5038810;28;20212;-71
2021/12/18 10:42:30;;;;;;;6.00;3.23;;;;;;;4.79;91.39;98156.56;5038546;28;20380;-70
2021/12/18 10:44:59;;;;;;;4.93;2.53;;;;;;;4.60;91.68;98157.81;5038221;28;20203;-70
2021/12/18 10:47:43;;;;;;;13.50;4.83;;;;;;;4.68;91.85;98158.19;5038001;28;20212;-70
2021/12/18 10:50:16;;;;;;;4.43;2.00;;;;;;;4.28;94.40;98153.72;5038455;28;20227;-71
2021/12/18 10:52:43;;;;;;;7.00;3.57;;;;;;;3.90;94.88;98151.72;5038566;28;20212;-70
2021/12/18 10:55:10;;;;;;;6.93;2.63;;;;;;;3.78;95.08;98155.88;5037522;28;20219;-70
2021/12/18 10:57:37;;;;;;;9.20;2.97;;;;;;;4.10;93.14;98164.41;5038676;28;20205;-70
2021/12/18 11:00:06;;;;;;;7.40;2.97;;;;;;;3.64;95.32;98150.63;5039095;28;20620;-70
2021/12/18 11:02:43;;;;;;;13.30;2.73;;;;;;;4.07;94.00;98148.94;5038194;28;20212;-70
2021/12/18 11:05:14;;;;;;;8.27;3.33;;;;;;;4.18;93.24;98139.53;5038418;28;20204;-71
2021/12/18 11:07:44;;;;;;;7.27;3.10;;;;;;;3.32;94.90;98131.72;5039039;28;20218;-70
2021/12/18 11:10:40;;;;;;;5.30;3.83;;;;;;;4.28;93.94;98144.09;5034783;28;20239;-70
2021/12/18 11:15:51;;;;;;;8.97;3.40;;;;;;;3.84;93.26;98142.47;5037457;28;20218;-70
2021/12/18 11:18:20;;;;;;;5.23;3.77;;;;;;;4.22;92.23;98133.22;5036790;28;21090;-70
2021/12/18 11:20:49;;;;;;;6.63;3.27;;;;;;;4.38;91.81;98131.34;5037906;28;20235;-70
2021/12/18 11:23:21;;;;;;;6.47;2.63;;;;;;;4.44;92.11;98128.34;5036882;28;20208;-70
2021/12/18 11:25:49;;;;;;;12.63;2.93;;;;;;;4.22;92.49;98117.56;5036781;28;20225;-71
2021/12/18 11:28:17;;;;;;;10.73;3.00;;;;;;;4.25;91.91;98118.22;5038347;28;20554;-70
2021/12/18 11:30:43;;;;;;;13.37;3.10;;;;;;;4.18;91.88;98112.63;5037588;28;20224;-70
2021/12/18 11:33:10;;;;;;;9.20;2.80;;;;;;;4.19;91.65;98109.91;5036982;28;20206;-70
2021/12/18 11:35:40;;;;;;;4.60;2.27;;;;;;;4.50;91.15;98096.66;5037122;28;20207;-70
2021/12/18 11:38:08;;;;;;;5.43;2.57;;;;;;;4.59;89.61;98101.31;5037954;28;21076;-70
2021/12/18 11:40:37;;;;;;;6.30;3.17;;;;;;;4.46;91.08;98092.56;5037902;28;20223;-70
2021/12/18 11:43:06;;;;;;;9.10;3.47;;;;;;;4.62;90.51;98086.28;5036745;28;20201;-70
2021/12/18 11:45:36;;;;;;;10.50;4.90;;;;;;;4.79;89.03;98085.25;5036794;28;20204;-70
2021/12/18 11:48:05;;;;;;;5.80;3.03;;;;;;;4.75;89.90;98086.34;5038695;28;20209;-70
2021/12/18 11:50:35;;;;;;;3.97;2.07;;;;;;;4.84;89.21;98079.59;5036856;28;20229;-70
2021/12/18 11:53:05;;;;;;;7.73;3.53;;;;;;;4.75;89.62;98076.75;5037235;28;20223;-70
2021/12/18 11:55:36;;;;;;;6.83;2.97;;;;;;;4.64;90.03;98081.81;5037078;28;20216;-71
2021/12/18 11:58:10;;;;;;;5.43;3.43;;;;;;;4.49;90.22;98077.56;5037760;28;20231;-70
2021/12/18 12:00:43;;;;;;;9.87;3.37;;;;;;;4.28;91.55;98080.66;5036494;28;20896;-70
2021/12/18 12:03:11;;;;;;;8.37;3.17;;;;;;;4.22;91.82;98074.97;5035301;28;20453;-70
2021/12/18 12:05:40;;;;;;;9.40;2.83;;;;;;;4.69;90.08;98066.69;5035453;28;20201;-70
2021/12/18 12:08:32;;;;;;;4.77;2.40;;;;;;;4.48;90.26;98070.66;5036084;28;20231;-70
2021/12/18 12:11:18;;;;;;;2.60;2.33;;;;;;;4.64;90.40;98071.34;5032824;28;20243;-70
2021/12/18 12:14:06;;;;;;;3.10;2.40;;;;;;;4.10;92.79;98070.50;5035022;28;20214;-70
2021/12/18 12:17:08;;;;;;;5.37;3.50;;;;;;;4.78;91.18;98060.06;5035059;28;20259;-70